Aérodrome :
LOGIN :

S'inscrire | Disclaimer

   EN    FR    IT 

 










Légende :    VFR   VFR Marginal   IFR   IFR Intensif   IFR Très Intensif
Visi : 
Plafond : 
>= 8 km
>= 3000ft
5 à 8 km
1000 à 3000 ft
1500m à 5 km
500 à 1000 ft
800 à 1500m
200 à 500 ft
< 800m
< 200 ft
Symboles :   Orages  Brouillard  Fortes neiges  Fortes précipitations  Vent > 20 kt
SIGMETs :   Divers  Orages  Givrage  Turbulence  Onde Orograph.  Cendres Volcan.







- Altitude de l'aérodrome : 330 ft
- Code IATA : LVA
- Voir les cartes d'approche


LFOV - Laval-Entrammes

DERNIER METAR :
  • 011730Z AUTO 25013KT 220V280 9999 -RA BKN009 BKN015 OVC078 12/10 Q1004

METARs EXPIRÉS :
  • 011700Z AUTO 25015G26KT 4800 RA BR BKN009/// OVC015/// ///CB 12/11 Q1004
  • 011630Z AUTO 24015KT 9999 -RA BKN009/// OVC013/// ///TCU 12/11 Q1003
  • 011600Z AUTO 23015G25KT 200V260 8000 -RA BKN008 OVC014 12/11 Q1003
  • 011530Z AUTO 23015KT 8000 -RA OVC008/// ///TCU 12/11 Q1003
  • 011500Z AUTO 24013G30KT 200V260 3100 RA BR OVC008/// ///TCU 12/11 Q1003

TAF N/A
Pas de NOTAMs connus pour ce terrain.
1 SIGMET publié pour la FIR Brest (LFRR) :
 
Turbulence forte
LFRR SIGMET 2 VALID 011600/012000 LFPW
LFRR BREST FIR/UIR SEV TURB OBS WI N4715 W00015 - N4630 W00015 - N4630 W00130 - N4530 W00145 - N4715 W00400 - N4745 W00115 SFC/FL040 STNR NC=



MET'MAP, la Météo Aéronautique d'un coup d'oeil ! - Copyright ORBIFLY Décembre 2007 - Disclaimer

ORBIFLY MET'MAP TEAM :

Programmation & Développement : Alexandra Zaïnal
Conception & Développement : Baudouin d'Aumeries
Co-Programmation & Développement : Marc-Olivier Méhu
Soutien technique & logistique : Manuel Goepfert

Contact : metmap@orbifly.com




SOURCES & CREDITS :

   NOAA